»·PEaware :: N698J YWLM-YSSY

N698J :: YWLM-YSSY

FLIGHT INFORMATION

Flight Status: Arrived
Operator: Privately registered:
United States
More flights under this callsign
Pilot: Ahmad S. (5672)
Aircraft: CANADAIR CL-600 CRJ-700
(CRJ7)
More flights by this aircraft type
Origin: YWLM Williamtown Military
Australia
Destination: YSSY Kingsford Smith Intl
Australia
More flights between these airports :: More routes between these airports
Route: WLM W139
File this flight plan on PilotEdge
Remarks:
Altitude:
(Current/Filed)
12,000ft
Speed:
(Current/Filed)
450kts
Departed: 25-Jun-15 12:18 PM
Arrived: 25-Jun-15 12:48 PM
Distance/Time
Traveled:
76nm/0:30
Distance/Time
To Go:
Arrived

Flight Plot

Page will automatically refresh every two minutes.


Map Options




Map Legend


Flown Route
Filed Route
Departure Airport
Arrival Airport
Navaid (VOR, NDB)
Fix

Horizontal Profiles

Position Reports

Time Latitude Longitude Heading Altitude Ground
Speed
25-Jun-15 11:51 -32.796366 151.843674 53 38ft 0kts
25-Jun-15 11:52 -32.796366 151.843674 53 38ft 0kts
25-Jun-15 11:53 -32.796366 151.843674 53 38ft 0kts
25-Jun-15 11:54 -32.796366 151.843674 53 38ft 0kts
25-Jun-15 11:55 -32.796366 151.843674 53 38ft 0kts
25-Jun-15 11:56 -32.796366 151.843674 53 38ft 0kts
25-Jun-15 11:57 -32.796366 151.843674 53 38ft 0kts
25-Jun-15 11:58 -32.796366 151.843674 53 38ft 0kts
25-Jun-15 11:59 -32.796366 151.843674 53 38ft 0kts
25-Jun-15 12:00 -32.796366 151.843674 53 38ft 0kts
25-Jun-15 12:01 -32.796366 151.843674 53 38ft 0kts
25-Jun-15 12:02 -32.796366 151.843674 53 38ft 0kts
25-Jun-15 12:03 -32.796366 151.843674 53 38ft 0kts
25-Jun-15 12:04 -32.796366 151.843674 53 38ft 0kts
25-Jun-15 12:05 -32.796366 151.843674 53 38ft 0kts
25-Jun-15 12:06 -32.796366 151.843674 53 38ft 0kts
25-Jun-15 12:07 -32.796366 151.843674 53 38ft 0kts
25-Jun-15 12:08 -32.796366 151.843674 53 38ft 0kts
25-Jun-15 12:09 -32.796366 151.843674 53 38ft 0kts
25-Jun-15 12:10 -32.796366 151.843674 53 38ft 0kts
25-Jun-15 12:11 -32.796366 151.843674 53 38ft 0kts
25-Jun-15 12:12 -32.796366 151.843674 53 38ft 0kts
25-Jun-15 12:13 -32.796366 151.843674 53 38ft 0kts
25-Jun-15 12:14 -32.796365 151.843676 53 38ft 0kts
25-Jun-15 12:15 -32.795518 151.844179 330 38ft 8kts
25-Jun-15 12:16 -32.797167 151.839493 304 38ft 13kts
25-Jun-15 12:17 -32.791416 151.831275 312 38ft 44kts
25-Jun-15 12:18 -32.788240 151.825677 219 38ft 0kts
25-Jun-15 12:19 -32.788959 151.825191 163 38ft 4kts
25-Jun-15 12:20 -32.802501 151.843594 133 575ft 198kts
25-Jun-15 12:21 -32.840178 151.887328 167 2929ft 200kts
25-Jun-15 12:22 -32.894933 151.862021 202 4843ft 223kts
25-Jun-15 12:23 -32.955081 151.827858 202 6856ft 244kts
25-Jun-15 12:24 -33.015870 151.794093 202 9053ft 242kts
25-Jun-15 12:25 -33.082948 151.757695 204 11324ft 310kts
25-Jun-15 12:26 -33.167206 151.704090 207 12008ft 359kts
25-Jun-15 12:27 -33.256063 151.646075 207 12003ft 365kts
25-Jun-15 12:28 -33.345617 151.587473 207 12006ft 366kts
25-Jun-15 12:29 -33.434239 151.527210 209 12002ft 367kts
25-Jun-15 12:30 -33.507512 151.475076 209 12004ft 366kts
25-Jun-15 12:31 -33.585463 151.419355 208 10714ft 293kts
25-Jun-15 12:32 -33.654143 151.377992 203 9114ft 263kts
25-Jun-15 12:33 -33.718730 151.340875 203 7519ft 251kts
25-Jun-15 12:34 -33.783614 151.333848 164 5956ft 239kts
25-Jun-15 12:35 -33.847240 151.356538 162 4365ft 236kts
25-Jun-15 12:36 -33.908183 151.378759 162 4020ft 227kts
25-Jun-15 12:37 -33.970654 151.401522 162 4017ft 240kts
25-Jun-15 12:38 -34.035018 151.425452 163 4015ft 243kts
25-Jun-15 12:39 -34.099881 151.443934 198 4009ft 239kts
25-Jun-15 12:40 -34.132032 151.381055 242 4011ft 214kts
25-Jun-15 12:41 -34.155669 151.316203 242 4014ft 209kts
25-Jun-15 12:42 -34.157481 151.244263 294 2641ft 217kts
25-Jun-15 12:43 -34.103081 151.215284 349 2520ft 224kts
25-Jun-15 12:44 -34.045386 151.201909 344 1762ft 181kts
25-Jun-15 12:45 -33.999909 151.189926 346 766ft 159kts
25-Jun-15 12:46 -33.957983 151.178952 348 29ft 125kts
25-Jun-15 12:47 -33.947460 151.175284 266 28ft 7kts
25-Jun-15 12:48 -33.945482 151.173860 345 28ft 17kts
25-Jun-15 12:49 -33.939437 151.172159 349 28ft 24kts
25-Jun-15 12:50 -33.932927 151.169992 310 28ft 14kts
25-Jun-15 12:51 -33.931022 151.168264 255 28ft 6kts
25-Jun-15 12:52 -33.931092 151.167790 259 28ft 0kts
25-Jun-15 12:53 -33.931092 151.167790 259 28ft 0kts
25-Jun-15 12:54 -33.931092 151.167790 259 28ft 0kts
25-Jun-15 12:55 -33.931092 151.167790 259 28ft 0kts
25-Jun-15 12:56 -33.931092 151.167790 259 28ft 0kts
25-Jun-15 12:57 -33.931092 151.167790 259 28ft 0kts

Navigation Log

Ident Type
Flight plan parsing failed, navigation log unavailable